Terminal Aerodrome Forecast
Issued by NWS Wilmington, NC

Current Version | Previous Version | Graphics & Text | Print | Product List | Glossary Off
Versions: 1 2 3 4 5 6 7 8 9 10 11 12 13 14

000
FTUS42 KILM 211720
TAFLBT
TAF
KLBT 211720Z 2118/2218 VRB04KT P6SM SCT250
     FM220300 00000KT P6SM BKN200
      TEMPO 2210/2212 5SM BR
     FM221300 08004KT P6SM SCT050 BKN250=

USA.gov is the U.S. government's official web portal to all federal, state and local government web resources and services.